Time;durP1;ratioP1;P1;durP2;ratioP2;P2;SDS_P1;SDS_P2;PMS_P1;PMS_P2;Temp;Humidity;BMP_temperature;BMP_pressure;BME280_temperature;BME280_humidity;BME280_pressure;Samples;Min_cycle;Max_cycle;Signal;HPM_P1;HPM_P2
2022/06/13 00:00:12;;;;;;;6.60;3.23;;;18.30;1.00;;;;;;6329287;28;20233;-56
2022/06/13 00:03:15;;;;;;;4.87;3.10;;;18.20;1.00;;;;;;6312397;27;20241;-56
2022/06/13 00:06:18;;;;;;;3.33;2.80;;;18.20;1.00;;;;;;6341152;27;20266;-55
2022/06/13 00:09:23;;;;;;;3.37;3.03;;;18.10;1.00;;;;;;6340266;27;20412;-55
2022/06/13 00:12:26;;;;;;;3.47;2.73;;;18.10;1.00;;;;;;6334891;28;20600;-56
2022/06/13 00:15:29;;;;;;;5.70;3.20;;;18.10;1.00;;;;;;6346262;27;20255;-55
2022/06/13 00:18:32;;;;;;;3.77;3.07;;;18.10;1.00;;;;;;6310452;28;20713;-56
2022/06/13 00:21:37;;;;;;;4.13;3.53;;;18.00;1.00;;;;;;6327134;28;20239;-54
2022/06/13 00:24:41;;;;;;;3.23;2.93;;;18.00;1.00;;;;;;6333701;28;20239;-55
2022/06/13 00:27:44;;;;;;;4.57;3.07;;;17.90;1.00;;;;;;6334193;28;20292;-55
2022/06/13 00:30:47;;;;;;;4.53;3.00;;;17.90;1.00;;;;;;6333087;28;20847;-55
2022/06/13 00:33:50;;;;;;;3.27;2.97;;;17.90;1.00;;;;;;6334581;28;20236;-54
2022/06/13 00:36:53;;;;;;;3.23;3.10;;;17.80;1.00;;;;;;6330181;28;20234;-55
2022/06/13 00:39:57;;;;;;;3.90;3.07;;;17.90;1.00;;;;;;6332274;28;20239;-54
2022/06/13 00:43:01;;;;;;;3.07;2.83;;;17.80;1.00;;;;;;6331119;28;20232;-55
2022/06/13 00:46:15;;;;;;;4.63;3.03;;;17.80;1.00;;;;;;6327446;28;20320;-54
2022/06/13 00:49:23;;;;;;;3.53;3.20;;;17.70;1.00;;;;;;6332454;28;20607;-55
2022/06/13 00:52:33;;;;;;;5.13;3.27;;;17.70;1.00;;;;;;6294697;28;20392;-53
2022/06/13 00:55:44;;;;;;;4.80;3.03;;;17.70;1.00;;;;;;6334796;28;20881;-55
2022/06/13 00:58:52;;;;;;;5.77;3.20;;;17.70;1.00;;;;;;6329355;28;20236;-54
2022/06/13 01:01:55;;;;;;;3.70;3.33;;;17.60;1.00;;;;;;6333816;28;20419;-54
2022/06/13 01:05:01;;;;;;;3.23;2.93;;;17.60;1.00;;;;;;6334264;28;20625;-55
2022/06/13 01:08:07;;;;;;;8.43;3.43;;;17.50;1.00;;;;;;6330025;28;20595;-55
2022/06/13 01:11:18;;;;;;;3.50;3.27;;;17.50;1.00;;;;;;6319904;28;20235;-56
2022/06/13 01:14:47;;;;;;;3.40;3.10;;;17.40;1.00;;;;;;6302969;28;20726;-53
2022/06/13 01:18:14;;;;;;;4.83;3.47;;;17.40;1.00;;;;;;6326271;28;20239;-55
2022/06/13 01:21:27;;;;;;;5.03;3.40;;;17.30;1.00;;;;;;6314141;28;20913;-57
2022/06/13 01:24:57;;;;;;;5.87;3.20;;;17.20;1.00;;;;;;6328157;28;20266;-56
2022/06/13 01:28:48;;;;;;;5.17;3.43;;;17.20;1.00;;;;;;6327422;28;20250;-55
2022/06/13 01:32:02;;;;;;;3.73;3.10;;;17.10;1.00;;;;;;6332149;28;20224;-55
2022/06/13 01:35:20;;;;;;;4.97;3.53;;;17.10;1.00;;;;;;6329841;28;20254;-55
2022/06/13 01:38:39;;;;;;;3.73;3.30;;;17.00;1.00;;;;;;6329510;27;20604;-56
2022/06/13 01:41:53;;;;;;;5.40;3.20;;;17.10;1.00;;;;;;6333432;28;20224;-55
2022/06/13 01:45:07;;;;;;;7.03;3.43;;;17.00;1.00;;;;;;6328222;28;20335;-56
2022/06/13 01:48:21;;;;;;;7.00;3.43;;;17.00;1.00;;;;;;6322195;28;20325;-54
2022/06/13 01:51:29;;;;;;;4.87;3.63;;;17.00;1.00;;;;;;6331507;27;20276;-56
2022/06/13 01:54:42;;;;;;;4.13;3.73;;;16.90;1.00;;;;;;6331077;28;20301;-56
2022/06/13 01:57:50;;;;;;;4.13;3.60;;;17.00;1.00;;;;;;6345529;27;20247;-55
2022/06/13 02:01:01;;;;;;;8.43;5.07;;;17.00;1.00;;;;;;6320200;28;20238;-55
2022/06/13 02:04:11;;;;;;;7.77;5.30;;;16.90;1.00;;;;;;6317990;28;20721;-57
2022/06/13 02:07:18;;;;;;;9.27;5.43;;;16.90;1.00;;;;;;6318578;28;20347;-55
2022/06/13 02:10:26;;;;;;;5.07;4.57;;;16.80;1.00;;;;;;6328737;28;20232;-54
2022/06/13 02:13:40;;;;;;;5.77;4.20;;;16.80;1.00;;;;;;6331841;28;20528;-55
2022/06/13 02:16:49;;;;;;;4.73;4.17;;;16.80;1.00;;;;;;6327542;28;20239;-55
2022/06/13 02:19:57;;;;;;;6.53;4.27;;;16.80;1.00;;;;;;6327175;27;20237;-56
2022/06/13 02:23:05;;;;;;;6.37;3.80;;;16.70;1.00;;;;;;6331105;27;20289;-54
2022/06/13 02:26:12;;;;;;;6.67;4.20;;;16.70;1.00;;;;;;6313099;27;20789;-55
2022/06/13 02:29:21;;;;;;;5.67;3.70;;;16.80;1.00;;;;;;6331709;27;20380;-56
2022/06/13 02:32:30;;;;;;;5.80;3.93;;;16.60;1.00;;;;;;6326131;28;20464;-56
2022/06/13 02:35:37;;;;;;;5.60;3.50;;;16.60;1.00;;;;;;6330635;28;20228;-55
2022/06/13 02:38:47;;;;;;;5.63;3.60;;;16.60;1.00;;;;;;6317975;28;20236;-55
2022/06/13 02:41:55;;;;;;;4.83;3.80;;;16.60;1.00;;;;;;6330499;28;20273;-55
2022/06/13 02:45:04;;;;;;;5.43;4.27;;;16.60;1.00;;;;;;6331715;28;20231;-55
2022/06/13 02:48:14;;;;;;;3.73;3.50;;;16.60;1.00;;;;;;6324182;28;20656;-55
2022/06/13 02:51:23;;;;;;;4.70;3.50;;;16.60;1.00;;;;;;6333002;28;20387;-56
2022/06/13 02:54:33;;;;;;;5.50;3.70;;;16.60;1.00;;;;;;6328108;28;20319;-55
2022/06/13 02:57:52;;;;;;;3.90;3.53;;;16.60;1.00;;;;;;6331638;28;20244;-56
2022/06/13 03:01:02;;;;;;;5.53;3.93;;;16.60;1.00;;;;;;6322778;28;20584;-55
2022/06/13 03:04:12;;;;;;;5.57;4.00;;;16.60;1.00;;;;;;6326478;28;20310;-56
2022/06/13 03:07:24;;;;;;;6.33;4.33;;;16.70;1.00;;;;;;6331889;28;20236;-55
2022/06/13 03:10:36;;;;;;;7.57;4.23;;;16.70;1.00;;;;;;6330001;28;20357;-54
2022/06/13 03:13:46;;;;;;;7.53;4.70;;;16.70;1.00;;;;;;6327750;28;20251;-54
2022/06/13 03:16:55;;;;;;;7.73;5.40;;;16.70;1.00;;;;;;6329830;28;20511;-56
2022/06/13 03:20:08;;;;;;;9.13;5.53;;;16.70;1.00;;;;;;6329362;28;20385;-55
2022/06/13 03:23:16;;;;;;;9.40;5.50;;;16.70;1.00;;;;;;6322926;28;20296;-53
2022/06/13 03:26:23;;;;;;;7.30;5.93;;;16.60;1.00;;;;;;6327708;28;20313;-57
2022/06/13 03:29:30;;;;;;;6.33;5.30;;;16.60;1.00;;;;;;6329327;28;20236;-57
2022/06/13 03:32:39;;;;;;;7.17;4.83;;;16.60;1.00;;;;;;6302767;28;20238;-55
2022/06/13 03:35:44;;;;;;;7.07;5.33;;;16.60;1.00;;;;;;6337247;28;20310;-55
2022/06/13 03:38:53;;;;;;;7.60;4.70;;;16.50;1.00;;;;;;6341139;28;20250;-55
2022/06/13 03:42:02;;;;;;;8.37;5.67;;;16.50;1.00;;;;;;6336792;28;20228;-56
2022/06/13 03:45:08;;;;;;;6.00;4.50;;;16.50;1.00;;;;;;6346449;28;20284;-55
2022/06/13 03:48:17;;;;;;;6.73;4.67;;;16.50;1.00;;;;;;6343381;28;20362;-56
2022/06/13 03:51:23;;;;;;;5.60;4.30;;;16.50;1.00;;;;;;6336200;28;20240;-55
2022/06/13 03:54:34;;;;;;;9.13;4.97;;;16.40;1.00;;;;;;6345171;28;20292;-56
2022/06/13 03:57:43;;;;;;;5.43;4.20;;;16.40;1.00;;;;;;6348361;28;20231;-56
2022/06/13 04:00:51;;;;;;;9.53;4.90;;;16.30;1.00;;;;;;6336758;28;20236;-55
2022/06/13 04:03:55;;;;;;;11.27;5.27;;;16.40;1.00;;;;;;6327562;28;20842;-54
2022/06/13 04:07:00;;;;;;;8.70;4.70;;;16.40;1.00;;;;;;6324139;28;20259;-54
2022/06/13 04:10:07;;;;;;;5.10;4.20;;;16.30;1.00;;;;;;6320682;28;20587;-57
2022/06/13 04:13:25;;;;;;;5.60;5.00;;;16.30;1.00;;;;;;6318356;28;20246;-56
2022/06/13 04:16:43;;;;;;;8.60;5.30;;;16.20;1.00;;;;;;6327717;28;20241;-56
2022/06/13 04:19:55;;;;;;;11.63;5.07;;;16.20;1.00;;;;;;6331553;28;20258;-56
2022/06/13 04:23:14;;;;;;;5.37;4.50;;;16.20;1.00;;;;;;6324524;28;20834;-54
2022/06/13 04:26:21;;;;;;;7.53;4.97;;;16.20;1.00;;;;;;6328243;28;20228;-56
2022/06/13 04:29:33;;;;;;;9.17;5.30;;;16.20;1.00;;;;;;6333151;28;20718;-56
2022/06/13 04:32:43;;;;;;;8.00;5.20;;;16.20;1.00;;;;;;6332961;28;20307;-54
2022/06/13 04:35:47;;;;;;;6.27;4.57;;;16.30;1.00;;;;;;6335751;28;20224;-56
2022/06/13 04:38:54;;;;;;;7.30;4.73;;;16.20;1.00;;;;;;6332763;28;20236;-55
2022/06/13 04:42:00;;;;;;;8.10;4.70;;;16.30;1.00;;;;;;6333004;28;20228;-56
2022/06/13 04:45:14;;;;;;;8.23;4.60;;;16.30;1.00;;;;;;6334994;28;20228;-56
2022/06/13 04:48:18;;;;;;;6.43;4.60;;;16.30;1.00;;;;;;6326493;27;20739;-57
2022/06/13 04:51:25;;;;;;;7.37;4.53;;;16.30;1.00;;;;;;6355482;27;20310;-57
2022/06/13 04:54:34;;;;;;;9.27;4.57;;;16.30;1.00;;;;;;6350251;27;20481;-55
2022/06/13 04:57:39;;;;;;;8.90;3.70;;;16.50;1.00;;;;;;6327960;28;20273;-55
2022/06/13 05:00:44;;;;;;;4.40;4.00;;;16.70;1.00;;;;;;6328300;28;20751;-56
2022/06/13 05:03:48;;;;;;;6.37;3.60;;;16.80;1.00;;;;;;6333697;27;20236;-56
2022/06/13 05:06:54;;;;;;;5.00;3.87;;;17.00;1.00;;;;;;6354595;27;20800;-56
2022/06/13 05:10:00;;;;;;;5.27;4.23;;;17.10;1.00;;;;;;6344978;27;20350;-55
2022/06/13 05:13:04;;;;;;;5.27;3.70;;;17.30;1.00;;;;;;6349713;27;20223;-54
2022/06/13 05:16:26;;;;;;;6.77;3.67;;;17.40;1.00;;;;;;6351117;27;20614;-54
2022/06/13 05:19:45;;;;;;;5.13;3.37;;;17.60;1.00;;;;;;6326004;28;20236;-56
2022/06/13 05:23:08;;;;;;;4.97;4.00;;;17.80;1.00;;;;;;6331683;28;20330;-56
2022/06/13 05:26:11;;;;;;;11.00;4.27;;;18.10;1.00;;;;;;6321305;28;20362;-54
2022/06/13 05:29:15;;;;;;;5.43;4.90;;;18.30;1.00;;;;;;6324309;28;20739;-54
2022/06/13 05:32:20;;;;;;;10.23;4.73;;;18.50;1.00;;;;;;6326928;28;20760;-55
2022/06/13 05:35:26;;;;;;;6.63;4.23;;;18.80;1.00;;;;;;6329967;28;20447;-56
2022/06/13 05:38:31;;;;;;;5.53;4.07;;;18.80;1.00;;;;;;6321004;28;20228;-55
2022/06/13 05:41:34;;;;;;;9.90;3.33;;;18.80;1.00;;;;;;6327731;28;20281;-56
2022/06/13 05:44:38;;;;;;;6.90;3.60;;;18.80;1.00;;;;;;6325519;28;20764;-54
2022/06/13 05:47:42;;;;;;;4.20;3.23;;;18.70;1.00;;;;;;6324517;28;20385;-57
2022/06/13 05:50:45;;;;;;;6.03;3.60;;;18.80;1.00;;;;;;6322011;28;21827;-56
2022/06/13 05:53:57;;;;;;;5.10;3.60;;;18.80;1.00;;;;;;6327226;28;20331;-55
2022/06/13 05:56:59;;;;;;;5.47;3.63;;;18.80;1.00;;;;;;6330996;28;20247;-52
2022/06/13 06:00:06;;;;;;;7.10;3.60;;;19.10;1.00;;;;;;6324174;28;20369;-56
2022/06/13 06:03:09;;;;;;;3.60;3.30;;;19.20;1.00;;;;;;6326457;27;20286;-53
2022/06/13 06:06:14;;;;;;;4.33;2.93;;;19.50;1.00;;;;;;6336387;27;20279;-56
2022/06/13 06:09:17;;;;;;;3.83;2.70;;;19.70;1.00;;;;;;6326545;28;20740;-56
2022/06/13 06:12:20;;;;;;;5.20;3.53;;;19.80;1.00;;;;;;6326129;28;20274;-55
2022/06/13 06:15:25;;;;;;;7.20;3.30;;;19.70;1.00;;;;;;6326465;28;20374;-55
2022/06/13 06:18:29;;;;;;;3.27;3.00;;;19.60;1.00;;;;;;6329850;27;20862;-56
2022/06/13 06:21:32;;;;;;;5.50;2.97;;;19.50;1.00;;;;;;6330547;28;20236;-56
2022/06/13 06:24:35;;;;;;;7.83;3.00;;;19.70;1.00;;;;;;6325013;28;20268;-56
2022/06/13 06:27:38;;;;;;;3.57;2.70;;;19.90;1.00;;;;;;6330690;28;20568;-56
2022/06/13 06:30:42;;;;;;;3.40;3.10;;;19.80;1.00;;;;;;6331576;27;20228;-55
2022/06/13 06:33:46;;;;;;;4.10;2.80;;;19.60;1.00;;;;;;6321664;28;20235;-55
2022/06/13 06:36:49;;;;;;;6.47;3.17;;;19.40;1.00;;;;;;6327510;27;20310;-54
2022/06/13 06:39:51;;;;;;;5.17;3.17;;;19.00;1.00;;;;;;6324203;28;20308;-55
2022/06/13 06:42:55;;;;;;;7.47;3.53;;;18.70;1.00;;;;;;6324735;28;20319;-55
2022/06/13 06:45:59;;;;;;;4.00;3.00;;;18.60;1.00;;;;;;6330948;28;20295;-54
2022/06/13 06:49:02;;;;;;;7.73;3.17;;;18.70;1.00;;;;;;6325758;28;20264;-54
2022/06/13 06:52:06;;;;;;;7.63;3.10;;;18.70;1.00;;;;;;6330418;28;20361;-54
2022/06/13 07:02:02;;;;;;;4.07;2.70;;;18.50;1.00;;;;;;6323444;28;20228;-56
2022/06/13 07:05:07;;;;;;;3.53;2.60;;;18.70;1.00;;;;;;6327006;28;20221;-62
2022/06/13 07:08:10;;;;;;;3.90;2.60;;;18.80;1.00;;;;;;6318577;28;20370;-56
2022/06/13 07:14:39;;;;;;;3.67;2.70;;;18.70;1.00;;;;;;6327336;28;20727;-56
2022/06/13 07:17:44;;;;;;;2.73;2.50;;;18.40;1.00;;;;;;6329347;28;20319;-55
2022/06/13 07:20:47;;;;;;;3.53;2.70;;;18.60;1.00;;;;;;6326647;28;20255;-55
2022/06/13 07:23:49;;;;;;;2.97;2.53;;;18.80;1.00;;;;;;6321839;28;20320;-56
2022/06/13 07:26:52;;;;;;;4.50;2.70;;;19.10;1.00;;;;;;6328680;28;20315;-56
2022/06/13 07:29:55;;;;;;;2.43;2.20;;;19.40;1.00;;;;;;6327340;28;20231;-56
2022/06/13 07:33:00;;;;;;;2.53;2.33;;;19.60;1.00;;;;;;6327729;28;20288;-54
2022/06/13 07:36:03;;;;;;;4.20;2.20;;;19.70;1.00;;;;;;6334378;28;20323;-56
2022/06/13 07:39:06;;;;;;;4.63;2.40;;;19.70;1.00;;;;;;6324407;28;20324;-55
2022/06/13 07:42:09;;;;;;;3.03;2.30;;;19.60;1.00;;;;;;6322221;28;20590;-55
2022/06/13 07:45:15;;;;;;;6.73;2.40;;;19.50;1.00;;;;;;6323811;28;20307;-55
2022/06/13 07:48:39;;;;;;;3.40;2.77;;;19.20;1.00;;;;;;6325349;28;20247;-54
2022/06/13 07:51:42;;;;;;;3.17;2.53;;;19.00;1.00;;;;;;6325635;28;20311;-55
2022/06/13 07:54:45;;;;;;;4.37;2.83;;;18.90;1.00;;;;;;6324182;28;20846;-56
2022/06/13 07:57:48;;;;;;;3.30;3.00;;;18.90;1.00;;;;;;6328212;28;20415;-55
2022/06/13 08:00:51;;;;;;;2.80;2.60;;;18.70;1.00;;;;;;6334654;28;20284;-55
2022/06/13 08:03:56;;;;;;;2.77;2.53;;;18.60;1.00;;;;;;6334140;28;20235;-55
2022/06/13 08:06:59;;;;;;;3.77;2.50;;;18.70;1.00;;;;;;6334300;28;20720;-55
2022/06/13 08:10:02;;;;;;;2.93;2.73;;;18.80;1.00;;;;;;6328024;28;20602;-50
2022/06/13 08:13:05;;;;;;;2.60;2.40;;;18.80;1.00;;;;;;6334459;28;20555;-54
2022/06/13 08:16:09;;;;;;;4.57;2.70;;;18.90;1.00;;;;;;6325787;28;20266;-55
2022/06/13 08:19:13;;;;;;;2.67;2.47;;;18.90;1.00;;;;;;6325452;28;20402;-55
2022/06/13 08:22:16;;;;;;;4.70;2.40;;;19.00;1.00;;;;;;6332322;28;20564;-55
2022/06/13 08:25:22;;;;;;;5.70;2.30;;;19.10;1.00;;;;;;6332668;27;20234;-55
2022/06/13 08:28:24;;;;;;;4.63;2.30;;;19.10;1.00;;;;;;6325754;28;20240;-55
2022/06/13 08:31:27;;;;;;;4.47;2.20;;;19.10;1.00;;;;;;6330399;28;20337;-54
2022/06/13 08:34:32;;;;;;;2.97;2.40;;;19.10;1.00;;;;;;6332329;28;20415;-56
2022/06/13 08:37:35;;;;;;;2.90;2.60;;;19.10;1.00;;;;;;6328036;28;20241;-54
2022/06/13 08:40:46;;;;;;;3.73;2.67;;;19.00;1.00;;;;;;6333421;28;20761;-56
2022/06/13 08:44:09;;;;;;;5.43;2.73;;;19.10;1.00;;;;;;6332238;28;20254;-55
2022/06/13 08:47:21;;;;;;;5.80;2.20;;;19.30;1.00;;;;;;6317960;28;20236;-55
2022/06/13 08:50:37;;;;;;;3.17;2.60;;;19.50;1.00;;;;;;6327019;28;20364;-56
2022/06/13 08:53:48;;;;;;;6.07;2.93;;;20.10;1.00;;;;;;6322681;28;20285;-55
2022/06/13 08:56:52;;;;;;;3.67;2.73;;;20.40;1.00;;;;;;6329503;28;20771;-55
2022/06/13 09:00:03;;;;;;;6.10;2.80;;;20.50;1.00;;;;;;6332224;28;20770;-57
2022/06/13 09:03:11;;;;;;;4.37;2.63;;;20.50;1.00;;;;;;6329559;28;20224;-54
2022/06/13 09:06:18;;;;;;;4.83;3.00;;;20.60;1.00;;;;;;6325233;28;20576;-55
2022/06/13 09:09:27;;;;;;;5.33;2.60;;;20.40;1.00;;;;;;6321404;28;20240;-54
2022/06/13 09:12:56;;;;;;;4.73;2.83;;;20.30;1.00;;;;;;6321032;28;20228;-54
2022/06/13 09:16:06;;;;;;;3.97;2.60;;;20.50;1.00;;;;;;6318074;28;20240;-55
2022/06/13 09:19:17;;;;;;;6.00;2.90;;;20.70;1.00;;;;;;6314703;28;21348;-56
2022/06/13 09:22:26;;;;;;;3.87;2.77;;;20.90;1.00;;;;;;6306845;28;20316;-55
2022/06/13 09:25:39;;;;;;;6.73;3.30;;;21.00;1.00;;;;;;6331392;28;20754;-55
2022/06/13 09:28:48;;;;;;;4.13;2.83;;;21.00;1.00;;;;;;6315716;28;20732;-55
2022/06/13 09:31:55;;;;;;;7.13;3.50;;;20.80;1.00;;;;;;6317796;27;20323;-56
2022/06/13 09:35:03;;;;;;;5.17;3.10;;;20.80;1.00;;;;;;6323524;27;20247;-56
2022/06/13 09:38:15;;;;;;;4.50;3.07;;;20.60;1.00;;;;;;6309491;28;20232;-55
2022/06/13 09:41:33;;;;;;;4.07;3.20;;;20.60;1.00;;;;;;6328358;27;20238;-55
2022/06/13 09:44:53;;;;;;;5.83;2.77;;;20.40;1.00;;;;;;6325037;28;20286;-55
2022/06/13 09:48:08;;;;;;;7.90;3.10;;;20.40;1.00;;;;;;6315164;28;20392;-55
2022/06/13 09:51:23;;;;;;;4.67;2.97;;;20.40;1.00;;;;;;6303270;28;20224;-49
2022/06/13 09:54:35;;;;;;;5.03;2.90;;;20.60;1.00;;;;;;6308089;28;20510;-55
2022/06/13 09:57:50;;;;;;;4.90;2.83;;;20.60;1.00;;;;;;6322287;28;20704;-54
2022/06/13 10:01:01;;;;;;;5.97;3.53;;;20.50;1.00;;;;;;6306553;28;20256;-54
2022/06/13 10:04:11;;;;;;;6.90;2.80;;;20.50;1.00;;;;;;6319957;28;20233;-56
2022/06/13 10:07:19;;;;;;;5.80;2.93;;;20.60;1.00;;;;;;6303968;28;20233;-55
2022/06/13 10:10:42;;;;;;;9.07;3.23;;;20.70;1.00;;;;;;6313939;28;20662;-55
2022/06/13 10:14:05;;;;;;;3.60;3.13;;;20.90;1.00;;;;;;6312527;28;20666;-55
2022/06/13 10:17:21;;;;;;;2.80;2.60;;;21.00;1.00;;;;;;6321210;27;20284;-55
2022/06/13 10:20:45;;;;;;;4.57;3.10;;;21.00;1.00;;;;;;6319105;28;20379;-54
2022/06/13 10:23:58;;;;;;;4.93;3.00;;;21.10;1.00;;;;;;6308223;28;20311;-56
2022/06/13 10:27:08;;;;;;;4.37;2.93;;;20.90;1.00;;;;;;6322858;28;20289;-56
2022/06/13 10:30:21;;;;;;;4.93;2.83;;;20.90;1.00;;;;;;6315438;28;20228;-55
2022/06/13 10:33:44;;;;;;;5.23;2.93;;;20.80;1.00;;;;;;6320340;28;20254;-56
2022/06/13 10:36:56;;;;;;;6.33;2.83;;;20.80;1.00;;;;;;6318733;28;20438;-56
2022/06/13 10:40:01;;;;;;;4.70;2.97;;;20.80;1.00;;;;;;6314055;28;20347;-56
2022/06/13 10:43:06;;;;;;;3.17;2.67;;;20.70;1.00;;;;;;6320662;28;20416;-56
2022/06/13 10:46:13;;;;;;;5.00;2.73;;;20.80;1.00;;;;;;6297720;28;20248;-56
2022/06/13 10:49:21;;;;;;;4.70;2.80;;;21.00;1.00;;;;;;6311947;28;20260;-56
2022/06/13 10:52:28;;;;;;;3.53;3.20;;;21.20;1.00;;;;;;6321053;28;20249;-53
2022/06/13 10:55:36;;;;;;;6.43;3.17;;;21.30;1.00;;;;;;6314666;28;20314;-55
2022/06/13 10:58:45;;;;;;;5.83;2.67;;;21.20;1.00;;;;;;6319506;28;20786;-56
2022/06/13 11:01:58;;;;;;;5.50;3.03;;;21.20;1.00;;;;;;6320807;28;20301;-56
2022/06/13 11:05:07;;;;;;;5.50;2.40;;;21.30;1.00;;;;;;6305402;28;20239;-57
2022/06/13 11:08:15;;;;;;;7.07;3.00;;;21.30;1.00;;;;;;6309806;28;20303;-56
2022/06/13 11:11:31;;;;;;;2.50;2.40;;;21.60;1.00;;;;;;6304694;28;20232;-56
2022/06/13 11:22:37;;;;;;;3.03;2.80;;;21.90;1.00;;;;;;6330220;28;20369;-54
2022/06/13 11:24:55;;;;;;;8.70;2.90;;;21.60;1.00;;;;;;6312602;28;20232;-55
2022/06/13 11:28:05;;;;;;;5.20;2.53;;;21.50;1.00;;;;;;6320875;28;20231;-56
2022/06/13 11:31:19;;;;;;;3.90;2.83;;;21.60;1.00;;;;;;6325412;27;20236;-57
2022/06/13 11:34:29;;;;;;;3.53;3.33;;;21.60;1.00;;;;;;6300413;28;20633;-52
2022/06/13 11:37:32;;;;;;;2.23;2.00;;;21.50;1.00;;;;;;6322135;28;20330;-56
2022/06/13 11:40:36;;;;;;;3.10;2.73;;;21.50;1.00;;;;;;6326718;27;20715;-55
2022/06/13 11:43:45;;;;;;;4.73;2.70;;;21.30;1.00;;;;;;6321684;28;20228;-56
2022/06/13 11:46:57;;;;;;;2.87;2.67;;;21.30;1.00;;;;;;6315853;28;20433;-56
2022/06/13 11:50:00;;;;;;;2.87;2.67;;;21.60;1.00;;;;;;6324707;28;20309;-57
2022/06/13 11:56:27;;;;;;;3.60;2.70;;;22.00;1.00;;;;;;6306970;28;20612;-56
2022/06/13 11:59:31;;;;;;;2.83;2.37;;;22.20;1.00;;;;;;6326266;28;21036;-55
2022/06/13 12:02:54;;;;;;;2.57;2.33;;;22.30;1.00;;;;;;6323287;27;20235;-55
2022/06/13 12:06:00;;;;;;;6.03;2.50;;;22.20;1.00;;;;;;6318677;28;20319;-55
2022/06/13 12:09:16;;;;;;;3.43;2.30;;;22.40;1.00;;;;;;6315969;28;20236;-56
2022/06/13 12:12:19;;;;;;;3.97;2.87;;;22.30;1.00;;;;;;6298655;28;20415;-54
2022/06/13 12:15:32;;;;;;;5.13;2.80;;;22.00;1.00;;;;;;6325417;27;20594;-54
2022/06/13 12:18:45;;;;;;;9.70;3.20;;;21.80;1.00;;;;;;6315201;28;20785;-55
2022/06/13 12:21:53;;;;;;;14.47;3.40;;;21.50;1.00;;;;;;6312073;28;20235;-55
2022/06/13 12:25:05;;;;;;;3.73;3.00;;;21.10;1.00;;;;;;6320999;28;20330;-55
2022/06/13 12:28:12;;;;;;;6.23;3.20;;;20.90;1.00;;;;;;6325230;28;20237;-55
2022/06/13 12:31:26;;;;;;;4.30;3.00;;;20.70;1.00;;;;;;6319502;27;20277;-55
2022/06/13 12:34:39;;;;;;;7.13;2.80;;;20.40;1.00;;;;;;6320668;28;20240;-55
2022/06/13 12:37:56;;;;;;;2.80;2.60;;;20.10;1.00;;;;;;6315832;28;20228;-56
2022/06/13 12:41:10;;;;;;;2.90;2.50;;;19.60;1.00;;;;;;6316630;28;20321;-54
2022/06/13 12:44:31;;;;;;;4.07;2.40;;;19.30;1.00;;;;;;6310881;28;20279;-53
2022/06/13 12:47:47;;;;;;;2.47;2.27;;;19.30;1.00;;;;;;6320323;28;20550;-55
2022/06/13 12:51:06;;;;;;;3.23;2.23;;;19.60;1.00;;;;;;6321554;28;20324;-55
2022/06/13 12:54:43;;;;;;;2.20;2.10;;;20.00;1.00;;;;;;6315760;28;20225;-55
2022/06/13 12:58:03;;;;;;;3.30;1.90;;;20.30;1.00;;;;;;6324987;28;20601;-56
2022/06/13 13:01:13;;;;;;;1.97;1.90;;;20.40;1.00;;;;;;6312540;28;20316;-56
2022/06/13 13:04:41;;;;;;;2.73;2.00;;;20.50;1.00;;;;;;6318271;28;20320;-55
2022/06/13 13:07:58;;;;;;;4.90;2.10;;;20.60;1.00;;;;;;6324397;27;20443;-55
2022/06/13 13:11:20;;;;;;;4.80;2.00;;;20.60;1.00;;;;;;6331251;28;20351;-55
2022/06/13 13:14:33;;;;;;;2.60;2.30;;;21.00;1.00;;;;;;6318560;28;20613;-55
2022/06/13 13:17:46;;;;;;;3.37;2.20;;;21.20;1.00;;;;;;6318571;28;20725;-57
2022/06/13 13:20:53;;;;;;;3.17;2.10;;;21.50;1.00;;;;;;6310795;28;20315;-55
2022/06/13 13:24:14;;;;;;;4.27;2.40;;;21.50;1.00;;;;;;6310877;28;20518;-55
2022/06/13 13:27:19;;;;;;;2.97;2.37;;;21.40;1.00;;;;;;6317496;28;20699;-56
2022/06/13 13:30:28;;;;;;;5.23;2.20;;;21.40;1.00;;;;;;6311530;28;20386;-54
2022/06/13 13:33:51;;;;;;;2.70;2.50;;;21.20;1.00;;;;;;6321529;28;20784;-56
2022/06/13 13:37:03;;;;;;;5.33;2.60;;;20.90;1.00;;;;;;6319379;28;20606;-55
2022/06/13 13:40:16;;;;;;;3.80;2.20;;;21.00;1.00;;;;;;6313599;28;20324;-55
2022/06/13 13:43:29;;;;;;;2.20;2.00;;;21.10;1.00;;;;;;6305326;28;20721;-56
2022/06/13 13:46:39;;;;;;;2.60;2.40;;;21.10;1.00;;;;;;6325319;28;20712;-58
2022/06/13 13:49:45;;;;;;;2.10;2.00;;;20.90;1.00;;;;;;6328222;28;20220;-56
2022/06/13 13:52:53;;;;;;;3.63;2.03;;;21.00;1.00;;;;;;6320269;28;20713;-57
2022/06/13 13:56:05;;;;;;;2.03;1.90;;;21.10;1.00;;;;;;6320445;28;20676;-56
2022/06/13 13:59:11;;;;;;;2.97;2.37;;;21.50;1.00;;;;;;6322621;28;20256;-55
2022/06/13 14:02:21;;;;;;;2.33;1.93;;;21.70;1.00;;;;;;6323802;28;20231;-55
2022/06/13 14:05:34;;;;;;;4.83;2.40;;;21.50;1.00;;;;;;6309320;28;20706;-54
2022/06/13 14:08:41;;;;;;;2.10;2.00;;;21.50;1.00;;;;;;6318310;28;20233;-56
2022/06/13 14:12:08;;;;;;;4.03;2.17;;;21.40;1.00;;;;;;6316103;28;20319;-55
2022/06/13 14:15:18;;;;;;;2.20;2.00;;;21.00;1.00;;;;;;6324403;28;20233;-53
2022/06/13 14:18:28;;;;;;;2.27;2.17;;;20.90;1.00;;;;;;6312023;28;20255;-55
2022/06/13 14:21:56;;;;;;;3.93;1.90;;;20.80;1.00;;;;;;6307153;28;20327;-56
2022/06/13 14:25:08;;;;;;;3.67;2.00;;;20.70;1.00;;;;;;6318399;27;20334;-55
2022/06/13 14:28:15;;;;;;;2.43;2.00;;;20.60;1.00;;;;;;6321117;28;20370;-56
2022/06/13 14:31:19;;;;;;;2.37;2.20;;;20.30;1.00;;;;;;6324307;28;20315;-55
2022/06/13 14:38:33;;;;;;;2.67;1.73;;;20.20;1.00;;;;;;6317522;28;20243;-54
2022/06/13 14:41:39;;;;;;;2.43;2.03;;;20.50;1.00;;;;;;6308195;28;20221;-57
2022/06/13 14:44:52;;;;;;;5.40;2.03;;;20.70;1.00;;;;;;6310874;28;20225;-56
2022/06/13 14:48:20;;;;;;;2.30;1.90;;;20.80;1.00;;;;;;6317987;28;20220;-55
2022/06/13 14:51:27;;;;;;;1.70;1.60;;;20.80;1.00;;;;;;6309993;28;20227;-56
2022/06/13 14:54:57;;;;;;;2.77;1.53;;;21.10;1.00;;;;;;6323168;28;20726;-55
2022/06/13 14:58:07;;;;;;;1.80;1.70;;;21.20;1.00;;;;;;6311936;28;20953;-56
2022/06/13 15:01:21;;;;;;;1.80;1.73;;;21.20;1.00;;;;;;6317468;27;20232;-55
2022/06/13 15:04:25;;;;;;;2.00;1.90;;;21.00;1.00;;;;;;6321279;28;20244;-55
2022/06/13 15:07:44;;;;;;;2.27;1.80;;;21.00;1.00;;;;;;6308831;28;20277;-55
2022/06/13 15:10:49;;;;;;;1.90;1.80;;;21.30;1.00;;;;;;6318986;28;20304;-55
2022/06/13 15:13:52;;;;;;;1.97;1.63;;;21.30;1.00;;;;;;6331162;28;20227;-55
2022/06/13 15:16:58;;;;;;;2.20;1.80;;;21.30;1.00;;;;;;6309316;28;20835;-56
2022/06/13 15:20:09;;;;;;;1.50;1.50;;;21.30;1.00;;;;;;6318040;28;20247;-54
2022/06/13 15:23:16;;;;;;;8.23;2.07;;;21.30;1.00;;;;;;6311056;28;20242;-55
2022/06/13 15:26:26;;;;;;;4.33;1.80;;;21.20;1.00;;;;;;6320734;28;20235;-57
2022/06/13 15:29:29;;;;;;;1.77;1.67;;;20.90;1.00;;;;;;6329823;28;20693;-55
2022/06/13 15:32:37;;;;;;;1.47;1.47;;;20.70;1.00;;;;;;6323307;28;20239;-55
2022/06/13 15:35:47;;;;;;;2.57;1.53;;;20.60;1.00;;;;;;6314081;28;20231;-55
2022/06/13 15:38:50;;;;;;;1.93;1.70;;;20.60;1.00;;;;;;6309174;28;20321;-56
2022/06/13 15:41:55;;;;;;;1.73;1.63;;;20.40;1.00;;;;;;6314052;28;20229;-54
2022/06/13 15:45:02;;;;;;;1.77;1.67;;;20.40;1.00;;;;;;6318666;28;20235;-55
2022/06/13 15:48:07;;;;;;;2.20;1.70;;;20.10;1.00;;;;;;6314763;28;20328;-55
2022/06/13 15:51:19;;;;;;;1.63;1.63;;;20.00;1.00;;;;;;6313761;28;20839;-55
2022/06/13 15:54:22;;;;;;;3.00;2.10;;;19.80;1.00;;;;;;6309845;28;21024;-55
2022/06/13 15:57:26;;;;;;;2.00;1.90;;;19.70;1.00;;;;;;6312129;28;20284;-56
2022/06/13 16:00:33;;;;;;;4.60;1.80;;;19.50;1.00;;;;;;6311980;28;20293;-54
2022/06/13 16:03:39;;;;;;;1.97;1.87;;;19.00;1.00;;;;;;6305389;28;20547;-55
2022/06/13 16:06:45;;;;;;;1.77;1.67;;;18.70;1.00;;;;;;6312879;28;20235;-54
2022/06/13 16:09:48;;;;;;;2.03;1.70;;;18.70;1.00;;;;;;6323653;28;20276;-53
2022/06/13 16:12:54;;;;;;;1.67;1.67;;;19.00;1.00;;;;;;6315366;28;20224;-55
2022/06/13 16:16:01;;;;;;;3.57;2.00;;;19.30;1.00;;;;;;6310180;28;20253;-53
2022/06/13 16:19:20;;;;;;;2.20;1.70;;;19.60;1.00;;;;;;6317674;28;20269;-54
2022/06/13 16:22:24;;;;;;;1.60;1.60;;;19.80;1.00;;;;;;6305273;28;20317;-54
2022/06/13 16:25:29;;;;;;;1.87;1.77;;;19.70;1.00;;;;;;6327520;28;20695;-55
2022/06/13 16:28:33;;;;;;;2.40;1.73;;;19.70;1.00;;;;;;6321049;28;20376;-55
2022/06/13 16:31:39;;;;;;;1.30;1.30;;;19.60;1.00;;;;;;6309470;28;20328;-54
2022/06/13 16:34:51;;;;;;;1.97;1.70;;;19.30;1.00;;;;;;6320268;28;20252;-54
2022/06/13 16:38:02;;;;;;;1.40;1.40;;;19.30;1.00;;;;;;6310777;27;20263;-56
2022/06/13 16:41:27;;;;;;;1.30;1.30;;;19.30;1.00;;;;;;6323521;28;20236;-53
2022/06/13 16:44:32;;;;;;;1.60;1.60;;;19.30;1.00;;;;;;6317852;28;20284;-53
2022/06/13 16:47:37;;;;;;;1.50;1.50;;;19.20;1.00;;;;;;6312911;28;20743;-54
2022/06/13 16:50:42;;;;;;;1.67;1.53;;;19.30;1.00;;;;;;6326330;28;20224;-53
2022/06/13 16:53:51;;;;;;;2.23;1.57;;;19.30;1.00;;;;;;6319479;28;20228;-54
2022/06/13 16:56:54;;;;;;;1.37;1.37;;;19.30;1.00;;;;;;6322327;27;20232;-55
2022/06/13 16:59:59;;;;;;;1.83;1.43;;;19.30;1.00;;;;;;6328748;27;20232;-54
2022/06/13 17:03:06;;;;;;;1.70;1.60;;;19.40;1.00;;;;;;6336311;27;20318;-59